Time;durP1;ratioP1;P1;durP2;ratioP2;P2;SDS_P1;SDS_P2;PMS_P1;PMS_P2;Temp;Humidity;BMP_temperature;BMP_pressure;BME280_temperature;BME280_humidity;BME280_pressure;Samples;Min_cycle;Max_cycle;Signal;HPM_P1;HPM_P2
2022/09/06 00:00:02;;;;;;;;;;;18.40;99.90;;;;;;5015524;28;20255;-69
2022/09/06 00:02:32;;;;;;;;;;;18.40;99.90;;;;;;5015409;28;19913;-69
2022/09/06 00:04:57;;;;;;;;;;;18.30;99.90;;;;;;5033195;28;19933;-70
2022/09/06 00:07:23;;;;;;;;;;;18.10;99.90;;;;;;5033158;28;19909;-70
2022/09/06 00:09:49;;;;;;;;;;;18.00;99.90;;;;;;5015416;28;19916;-70
2022/09/06 00:12:14;;;;;;;;;;;18.00;99.90;;;;;;5033154;28;19955;-70
2022/09/06 00:14:40;;;;;;;;;;;18.00;99.90;;;;;;5032548;28;19917;-69
2022/09/06 00:17:06;;;;;;;;;;;17.90;99.90;;;;;;5036976;28;19949;-69
2022/09/06 00:19:31;;;;;;;;;;;18.00;99.90;;;;;;5052256;28;19959;-68
2022/09/06 00:21:57;;;;;;;;;;;18.00;99.90;;;;;;5036869;28;19905;-69
2022/09/06 00:24:22;;;;;;;;;;;18.00;99.90;;;;;;5036455;28;19919;-69
2022/09/06 00:26:48;;;;;;;;;;;17.90;99.90;;;;;;5036765;28;19996;-69
2022/09/06 00:29:14;;;;;;;;;;;17.90;99.90;;;;;;5036796;28;19940;-68
2022/09/06 00:31:39;;;;;;;;;;;17.90;99.90;;;;;;5036677;28;19909;-69
2022/09/06 00:34:05;;;;;;;;;;;17.80;99.90;;;;;;5051939;28;19909;-70
2022/09/06 00:36:31;;;;;;;;;;;17.80;99.90;;;;;;5036292;28;19908;-69
2022/09/06 00:38:57;;;;;;;;;;;17.80;99.90;;;;;;5036838;28;19999;-69
2022/09/06 00:41:23;;;;;;;;;;;17.80;99.90;;;;;;5036838;28;19912;-69
2022/09/06 00:43:48;;;;;;;;;;;17.70;99.90;;;;;;5036361;28;19913;-70
2022/09/06 00:46:16;;;;;;;;;;;17.80;99.90;;;;;;5018636;28;19905;-69
2022/09/06 00:48:42;;;;;;;;;;;17.80;99.90;;;;;;5018623;28;19908;-69
2022/09/06 00:51:09;;;;;;;;;;;17.80;99.90;;;;;;5036371;28;19905;-69
2022/09/06 00:53:35;;;;;;;;;;;17.80;99.90;;;;;;5036289;28;19941;-69
2022/09/06 00:56:00;;;;;;;;;;;17.70;99.90;;;;;;5036207;28;19956;-69
2022/09/06 00:58:26;;;;;;;;;;;17.80;99.90;;;;;;5036505;28;19913;-68
2022/09/06 01:00:52;;;;;;;;;;;17.80;99.90;;;;;;5036206;28;20369;-69
2022/09/06 01:03:19;;;;;;;;;;;17.80;99.90;;;;;;5035774;28;20377;-69
2022/09/06 01:05:44;;;;;;;;;;;17.80;99.90;;;;;;5036039;28;19911;-70
2022/09/06 01:08:25;;;;;;;;;;;17.80;99.90;;;;;;5035953;28;19905;-70
2022/09/06 01:10:50;;;;;;;;;;;17.80;99.90;;;;;;5035944;28;19967;-69
2022/09/06 01:13:38;;;;;;;;;;;17.80;99.90;;;;;;5035602;28;20308;-70
2022/09/06 01:16:12;;;;;;;;;;;17.80;99.90;;;;;;5018083;28;19959;-69
2022/09/06 01:18:50;;;;;;;;;;;17.70;99.90;;;;;;5018060;28;19934;-69
2022/09/06 01:21:22;;;;;;;;;;;17.70;99.90;;;;;;5036012;28;19909;-69
2022/09/06 01:24:06;;;;;;;;;;;17.60;99.90;;;;;;5050994;28;20358;-69
2022/09/06 01:26:51;;;;;;;;;;;17.60;99.90;;;;;;5050763;28;19905;-68
2022/09/06 01:29:38;;;;;;;;;;;17.60;99.90;;;;;;5035841;28;20393;-69
2022/09/06 01:32:10;;;;;;;;;;;17.60;99.90;;;;;;5035581;28;19905;-70
2022/09/06 01:34:41;;;;;;;;;;;17.60;99.90;;;;;;5035544;28;19905;-70
2022/09/06 01:37:18;;;;;;;;;;;17.60;99.90;;;;;;5035823;28;19944;-69
2022/09/06 01:39:44;;;;;;;;;;;17.60;99.90;;;;;;5035101;28;19905;-69
2022/09/06 01:42:27;;;;;;;;;;;17.60;99.90;;;;;;5017512;28;20364;-70
2022/09/06 01:44:55;;;;;;;;;;;17.60;99.90;;;;;;5035318;28;19905;-70
2022/09/06 01:47:34;;;;;;;;;;;17.60;99.90;;;;;;5034976;28;20274;-70
2022/09/06 01:50:06;;;;;;;;;;;17.50;99.90;;;;;;5016604;28;19905;-70
2022/09/06 01:52:42;;;;;;;;;;;17.40;99.90;;;;;;5035148;28;20455;-69
2022/09/06 01:55:11;;;;;;;;;;;17.40;99.90;;;;;;5035176;28;19905;-69
2022/09/06 01:57:56;;;;;;;;;;;17.40;99.90;;;;;;5035050;28;19948;-69
2022/09/06 02:00:22;;;;;;;;;;;17.40;99.90;;;;;;5035094;28;19992;-70
2022/09/06 02:02:54;;;;;;;;;;;17.40;99.90;;;;;;5034925;28;20011;-69
2022/09/06 02:05:26;;;;;;;;;;;17.30;99.90;;;;;;5034953;28;20455;-68
2022/09/06 02:07:55;;;;;;;;;;;17.30;99.90;;;;;;5017163;28;19909;-70
2022/09/06 02:10:36;;;;;;;;;;;17.30;99.90;;;;;;5017095;28;19905;-71
2022/09/06 02:13:04;;;;;;;;;;;17.20;99.90;;;;;;5034798;28;19982;-69
2022/09/06 02:15:32;;;;;;;;;;;17.10;99.90;;;;;;5016824;28;19905;-70
2022/09/06 02:18:07;;;;;;;;;;;17.20;99.90;;;;;;5016923;28;20349;-70
2022/09/06 02:20:35;;;;;;;;;;;17.10;99.90;;;;;;5034694;28;19909;-69
2022/09/06 02:23:03;;;;;;;;;;;17.10;99.90;;;;;;5034539;28;19916;-70
2022/09/06 02:25:40;;;;;;;;;;;17.10;99.90;;;;;;5034524;28;19909;-68
2022/09/06 02:28:06;;;;;;;;;;;17.10;99.90;;;;;;5034573;28;19912;-68
2022/09/06 02:30:35;;;;;;;;;;;17.20;99.90;;;;;;5034532;28;19905;-72
2022/09/06 02:33:03;;;;;;;;;;;17.30;99.90;;;;;;5034637;28;20265;-68
2022/09/06 02:35:29;;;;;;;;;;;17.20;99.90;;;;;;5034379;28;19909;-69
2022/09/06 02:37:55;;;;;;;;;;;17.20;99.90;;;;;;5033795;28;19905;-70
2022/09/06 02:40:21;;;;;;;;;;;17.20;99.90;;;;;;5016499;28;20054;-69
2022/09/06 02:42:47;;;;;;;;;;;17.20;99.90;;;;;;5034159;28;19970;-70
2022/09/06 02:45:12;;;;;;;;;;;17.30;99.90;;;;;;5034523;28;20289;-69
2022/09/06 02:47:38;;;;;;;;;;;17.20;99.90;;;;;;5033809;28;19905;-70
2022/09/06 02:50:04;;;;;;;;;;;17.20;99.90;;;;;;5034079;28;19913;-69
2022/09/06 02:52:29;;;;;;;;;;;17.30;99.90;;;;;;5034124;28;19909;-69
2022/09/06 02:54:55;;;;;;;;;;;17.30;99.90;;;;;;5034003;28;20350;-69
2022/09/06 02:57:21;;;;;;;;;;;17.20;99.90;;;;;;5033979;28;19905;-70
2022/09/06 02:59:47;;;;;;;;;;;17.20;99.90;;;;;;5033926;28;20061;-70
2022/09/06 03:02:13;;;;;;;;;;;17.20;99.90;;;;;;5016126;28;19994;-70
2022/09/06 03:04:39;;;;;;;;;;;17.10;99.90;;;;;;5016178;28;19905;-70
2022/09/06 03:07:05;;;;;;;;;;;17.10;99.90;;;;;;5033537;28;20269;-69
2022/09/06 03:09:30;;;;;;;;;;;17.00;99.90;;;;;;5016056;28;19916;-69
2022/09/06 03:11:56;;;;;;;;;;;17.00;99.90;;;;;;5033827;28;20373;-69
2022/09/06 03:14:22;;;;;;;;;;;16.90;99.90;;;;;;5033292;28;20329;-70
2022/09/06 03:16:47;;;;;;;;;;;16.90;99.90;;;;;;5034006;28;19959;-70
2022/09/06 03:19:13;;;;;;;;;;;16.90;99.90;;;;;;5048878;28;19905;-69
2022/09/06 03:21:39;;;;;;;;;;;16.90;99.90;;;;;;5033700;28;19905;-69
2022/09/06 03:24:05;;;;;;;;;;;16.80;99.90;;;;;;5015820;28;19913;-70
2022/09/06 03:26:30;;;;;;;;;;;16.70;99.90;;;;;;5033562;28;20342;-71
2022/09/06 03:28:56;;;;;;;;;;;16.60;99.90;;;;;;5033465;28;20326;-70
2022/09/06 03:31:27;;;;;;;;;;;16.60;99.90;;;;;;5032933;28;20411;-70
2022/09/06 03:33:52;;;;;;;;;;;16.60;99.90;;;;;;5015720;28;19909;-70
2022/09/06 03:36:18;;;;;;;;;;;16.60;99.90;;;;;;5033490;28;19912;-69
2022/09/06 03:38:44;;;;;;;;;;;16.50;99.90;;;;;;5033434;28;19905;-70
2022/09/06 03:41:09;;;;;;;;;;;16.50;99.90;;;;;;5015760;28;19905;-68
2022/09/06 03:43:35;;;;;;;;;;;16.50;99.90;;;;;;5033297;28;20007;-69
2022/09/06 03:46:01;;;;;;;;;;;16.40;99.90;;;;;;5033403;28;19909;-69
2022/09/06 03:48:27;;;;;;;;;;;16.40;99.90;;;;;;5033378;28;20341;-69
2022/09/06 03:50:54;;;;;;;;;;;16.40;99.90;;;;;;5035475;28;20011;-69
2022/09/06 03:53:20;;;;;;;;;;;16.40;99.90;;;;;;5037744;28;19905;-70
2022/09/06 03:55:47;;;;;;;;;;;16.40;99.90;;;;;;5037670;28;19966;-70
2022/09/06 03:58:13;;;;;;;;;;;16.40;99.90;;;;;;5037359;28;19951;-71
2022/09/06 04:00:39;;;;;;;;;;;16.50;99.90;;;;;;5037295;28;19959;-69
2022/09/06 04:03:05;;;;;;;;;;;16.50;99.90;;;;;;5037036;28;20341;-70
2022/09/06 04:05:31;;;;;;;;;;;16.50;99.90;;;;;;5037525;28;19905;-70
2022/09/06 04:07:56;;;;;;;;;;;16.60;99.90;;;;;;5037160;28;19909;-69
2022/09/06 04:10:22;;;;;;;;;;;16.60;99.90;;;;;;5037121;28;20393;-69
2022/09/06 04:12:48;;;;;;;;;;;16.60;99.90;;;;;;5019039;28;19963;-69
2022/09/06 04:15:13;;;;;;;;;;;16.60;99.90;;;;;;5037427;28;19912;-70
2022/09/06 04:17:42;;;;;;;;;;;16.70;99.90;;;;;;5036923;28;19905;-70
2022/09/06 04:20:09;;;;;;;;;;;16.70;99.90;;;;;;5036926;28;19927;-69
2022/09/06 04:22:34;;;;;;;;;;;16.60;99.90;;;;;;5019056;28;19960;-70
2022/09/06 04:25:00;;;;;;;;;;;16.60;99.90;;;;;;5019089;28;19940;-71
2022/09/06 04:27:26;;;;;;;;;;;16.60;99.90;;;;;;5036491;28;19909;-69
2022/09/06 04:29:51;;;;;;;;;;;16.60;99.90;;;;;;5036736;28;19913;-70
2022/09/06 04:32:17;;;;;;;;;;;16.60;99.90;;;;;;5018650;28;19955;-70
2022/09/06 04:34:42;;;;;;;;;;;16.60;99.90;;;;;;5036506;28;19909;-71
2022/09/06 04:37:08;;;;;;;;;;;16.60;99.90;;;;;;5051571;28;19928;-70
2022/09/06 04:39:34;;;;;;;;;;;16.60;99.90;;;;;;5036546;28;20309;-71
2022/09/06 04:42:00;;;;;;;;;;;16.60;99.90;;;;;;5018774;28;19905;-70
2022/09/06 04:44:25;;;;;;;;;;;16.70;99.90;;;;;;5051616;28;19919;-70
2022/09/06 04:47:01;;;;;;;;;;;16.80;99.90;;;;;;5018666;28;19909;-70
2022/09/06 04:49:27;;;;;;;;;;;16.70;99.90;;;;;;5036361;28;19916;-70
2022/09/06 04:51:52;;;;;;;;;;;16.80;99.90;;;;;;5036596;28;19909;-68
2022/09/06 04:54:18;;;;;;;;;;;16.80;99.90;;;;;;5036075;28;19909;-69
2022/09/06 04:56:46;;;;;;;;;;;16.80;99.90;;;;;;5036144;28;20277;-71
2022/09/06 04:59:11;;;;;;;;;;;16.80;99.90;;;;;;5018307;28;19905;-70
2022/09/06 05:01:37;;;;;;;;;;;16.80;99.90;;;;;;5035550;28;19912;-70
2022/09/06 05:04:03;;;;;;;;;;;16.90;99.90;;;;;;5051204;28;20297;-69
2022/09/06 05:06:29;;;;;;;;;;;16.90;99.90;;;;;;5036020;28;19913;-69
2022/09/06 05:08:54;;;;;;;;;;;16.90;99.90;;;;;;5035967;28;19951;-70
2022/09/06 05:11:20;;;;;;;;;;;16.90;99.90;;;;;;5035698;28;20324;-69
2022/09/06 05:13:46;;;;;;;;;;;16.90;99.90;;;;;;5035500;28;19948;-69
2022/09/06 05:16:12;;;;;;;;;;;16.90;99.90;;;;;;5035886;28;20364;-71
2022/09/06 05:18:38;;;;;;;;;;;17.00;99.90;;;;;;5035815;28;19905;-69
2022/09/06 05:21:04;;;;;;;;;;;17.00;99.90;;;;;;5035783;28;19911;-69
2022/09/06 05:23:29;;;;;;;;;;;17.00;99.90;;;;;;5017802;28;20262;-73
2022/09/06 05:25:55;;;;;;;;;;;17.10;99.90;;;;;;5035626;28;19916;-73
2022/09/06 05:28:21;;;;;;;;;;;17.10;99.90;;;;;;5050894;28;19905;-70
2022/09/06 05:30:47;;;;;;;;;;;17.20;99.90;;;;;;5035574;28;19909;-69
2022/09/06 05:33:13;;;;;;;;;;;17.20;99.90;;;;;;5035462;28;19951;-70
2022/09/06 05:35:39;;;;;;;;;;;17.20;99.90;;;;;;5017625;28;19944;-70
2022/09/06 05:38:05;;;;;;;;;;;17.30;99.90;;;;;;5035444;28;19912;-70
2022/09/06 05:40:30;;;;;;;;;;;17.20;99.90;;;;;;5035395;28;19909;-70
2022/09/06 05:42:56;;;;;;;;;;;17.30;99.90;;;;;;5035304;28;19921;-70
2022/09/06 05:45:22;;;;;;;;;;;17.40;99.90;;;;;;5035221;28;19905;-72
2022/09/06 05:47:47;;;;;;;;;;;17.40;99.90;;;;;;5017497;28;20051;-70
2022/09/06 05:50:13;;;;;;;;;;;17.50;99.90;;;;;;5035176;28;19999;-70
2022/09/06 05:52:39;;;;;;;;;;;17.50;99.90;;;;;;5035469;28;20378;-69
2022/09/06 05:55:05;;;;;;;;;;;17.50;99.90;;;;;;5050272;28;19905;-66
2022/09/06 05:57:31;;;;;;;;;;;17.60;99.90;;;;;;5035062;28;19905;-68
2022/09/06 05:59:56;;;;;;;;;;;17.60;99.90;;;;;;5017033;28;20620;-70
2022/09/06 06:02:22;;;;;;;;;;;17.70;99.90;;;;;;5049262;28;20349;-70
2022/09/06 06:04:48;;;;;;;;;;;17.80;99.90;;;;;;5015084;28;19967;-69
2022/09/06 06:07:14;;;;;;;;;;;17.80;99.90;;;;;;5033127;28;19909;-68
2022/09/06 06:09:40;;;;;;;;;;;17.90;99.90;;;;;;5034138;28;19905;-69
2022/09/06 06:12:06;;;;;;;;;;;18.00;99.90;;;;;;5016484;28;19905;-70
2022/09/06 06:14:32;;;;;;;;;;;18.10;99.90;;;;;;5016148;28;20338;-68
2022/09/06 06:16:57;;;;;;;;;;;18.20;99.90;;;;;;5016893;28;19928;-68
2022/09/06 06:19:25;;;;;;;;;;;18.30;99.90;;;;;;5034617;28;19909;-69
2022/09/06 06:21:51;;;;;;;;;;;18.40;99.90;;;;;;5034483;28;19905;-68
2022/09/06 06:24:17;;;;;;;;;;;18.50;99.90;;;;;;5034093;28;19916;-70
2022/09/06 06:26:42;;;;;;;;;;;18.50;99.90;;;;;;5033839;28;20353;-68
2022/09/06 06:29:08;;;;;;;;;;;18.60;99.90;;;;;;5049751;28;19905;-69
2022/09/06 06:31:35;;;;;;;;;;;18.70;99.90;;;;;;5034329;28;19916;-66
2022/09/06 06:34:03;;;;;;;;;;;18.80;99.90;;;;;;5049748;28;19905;-67
2022/09/06 06:36:30;;;;;;;;;;;18.80;99.90;;;;;;5034309;28;20024;-68
2022/09/06 06:38:56;;;;;;;;;;;18.90;99.90;;;;;;5034333;28;19906;-67
2022/09/06 06:41:26;;;;;;;;;;;19.00;99.90;;;;;;5034233;28;19905;-66
2022/09/06 06:43:52;;;;;;;;;;;19.00;99.90;;;;;;5016463;28;19913;-69
2022/09/06 06:46:18;;;;;;;;;;;19.10;99.90;;;;;;5034160;28;19927;-66
2022/09/06 06:48:45;;;;;;;;;;;19.10;99.90;;;;;;5034112;28;20269;-66
2022/09/06 06:51:12;;;;;;;;;;;19.30;99.90;;;;;;5016311;28;19963;-69
2022/09/06 06:53:37;;;;;;;;;;;19.30;99.90;;;;;;5033965;28;19912;-68
2022/09/06 06:56:33;;;;;;;;;;;19.40;99.90;;;;;;5049314;28;19959;-68
2022/09/06 06:59:03;;;;;;;;;;;19.50;99.90;;;;;;5007283;28;19988;-69
2022/09/06 07:01:29;;;;;;;;;;;19.60;99.90;;;;;;5033580;28;20376;-65
2022/09/06 07:03:55;;;;;;;;;;;19.60;99.90;;;;;;5033748;28;19917;-69
2022/09/06 07:06:21;;;;;;;;;;;19.80;99.90;;;;;;5016044;28;20688;-68
2022/09/06 07:08:47;;;;;;;;;;;19.90;99.90;;;;;;5033685;28;19917;-68
2022/09/06 07:11:14;;;;;;;;;;;20.00;99.90;;;;;;5048859;28;19905;-67
2022/09/06 07:13:40;;;;;;;;;;;20.10;99.90;;;;;;5033403;28;20003;-66
2022/09/06 07:16:05;;;;;;;;;;;20.30;99.90;;;;;;5033621;28;20004;-68
2022/09/06 07:18:31;;;;;;;;;;;20.30;99.90;;;;;;5033612;28;19909;-66
2022/09/06 07:20:57;;;;;;;;;;;20.50;99.90;;;;;;5048933;28;19924;-68
2022/09/06 07:23:24;;;;;;;;;;;20.60;99.90;;;;;;5033547;28;19971;-66
2022/09/06 07:25:49;;;;;;;;;;;20.70;99.90;;;;;;5048559;28;19912;-67
2022/09/06 07:28:15;;;;;;;;;;;;;;;;;;5033482;28;19905;-68
2022/09/06 07:30:41;;;;;;;;;;;20.80;99.90;;;;;;5033479;28;19959;-67
2022/09/06 07:33:07;;;;;;;;;;;21.10;99.90;;;;;;5033428;28;20361;-69
2022/09/06 07:35:33;;;;;;;;;;;;;;;;;;5033713;28;19913;-68
2022/09/06 07:37:59;;;;;;;;;;;;;;;;;;5033332;28;19929;-65
2022/09/06 07:40:25;;;;;;;;;;;21.20;99.90;;;;;;5033291;28;19905;-66
2022/09/06 07:42:51;;;;;;;;;;;;;;;;;;5033340;28;20021;-66
2022/09/06 07:45:17;;;;;;;;;;;21.50;99.90;;;;;;5048582;28;19916;-66
2022/09/06 07:47:43;;;;;;;;;;;21.80;99.90;;;;;;5033329;28;19905;-67
2022/09/06 07:50:09;;;;;;;;;;;21.90;99.90;;;;;;5033609;28;20317;-68
2022/09/06 07:52:35;;;;;;;;;;;22.00;99.90;;;;;;5033260;28;19909;-68
2022/09/06 07:55:00;;;;;;;;;;;22.10;99.90;;;;;;5048437;28;19916;-68
2022/09/06 07:57:26;;;;;;;;;;;22.20;99.90;;;;;;5033114;28;20019;-67
2022/09/06 07:59:52;;;;;;;;;;;22.30;99.90;;;;;;5048376;28;19905;-68
2022/09/06 08:02:17;;;;;;;;;;;22.50;99.90;;;;;;5033111;28;19908;-67
2022/09/06 08:04:43;;;;;;;;;;;22.70;99.90;;;;;;5033088;28;20007;-68
2022/09/06 08:07:09;;;;;;;;;;;22.80;99.90;;;;;;5032997;28;19905;-68
2022/09/06 08:09:35;;;;;;;;;;;22.90;99.90;;;;;;5033010;28;19945;-68
2022/09/06 08:12:05;;;;;;;;;;;23.10;99.90;;;;;;5032935;28;19909;-67
2022/09/06 08:14:31;;;;;;;;;;;23.20;99.90;;;;;;5032942;28;19956;-66
2022/09/06 08:16:57;;;;;;;;;;;23.30;99.90;;;;;;5048158;28;19913;-67
2022/09/06 08:19:22;;;;;;;;;;;23.50;99.90;;;;;;5032969;28;20273;-68
2022/09/06 08:21:48;;;;;;;;;;;23.60;99.90;;;;;;5032952;28;19905;-67
2022/09/06 08:24:14;;;;;;;;;;;23.70;99.90;;;;;;5032930;28;19920;-68
2022/09/06 08:26:43;;;;;;;;;;;23.80;99.90;;;;;;5032626;28;20281;-67
2022/09/06 08:29:09;;;;;;;;;;;23.90;99.90;;;;;;5032610;28;20006;-67
2022/09/06 08:31:36;;;;;;;;;;;24.00;99.90;;;;;;5032931;28;19909;-68
2022/09/06 08:34:02;;;;;;;;;;;24.30;99.90;;;;;;5033262;28;19909;-68
2022/09/06 08:36:31;;;;;;;;;;;24.40;99.90;;;;;;5034084;28;19905;-68
2022/09/06 08:38:58;;;;;;;;;;;24.60;99.90;;;;;;5036488;28;19913;-68
2022/09/06 08:41:39;;;;;;;;;;;24.70;99.90;;;;;;5051742;28;20002;-67
2022/09/06 08:44:09;;;;;;;;;;;24.80;99.90;;;;;;5018651;28;19920;-67
2022/09/06 08:46:39;;;;;;;;;;;25.00;99.90;;;;;;5036388;28;19913;-68
2022/09/06 08:49:05;;;;;;;;;;;25.00;99.90;;;;;;5036183;28;19905;-67
2022/09/06 08:51:55;;;;;;;;;;;25.20;99.90;;;;;;5036339;28;19905;-67
2022/09/06 08:54:32;;;;;;;;;;;25.30;99.90;;;;;;5036274;28;20358;-72
2022/09/06 08:57:00;;;;;;;;;;;25.40;99.90;;;;;;5036533;28;19909;-68
2022/09/06 08:59:27;;;;;;;;;;;25.40;99.90;;;;;;5033874;28;20390;-69
2022/09/06 09:02:16;;;;;;;;;;;25.60;99.90;;;;;;5028332;28;19905;-66
2022/09/06 09:04:43;;;;;;;;;;;25.80;99.90;;;;;;5012518;28;20058;-68
2022/09/06 09:07:31;;;;;;;;;;;25.80;99.90;;;;;;5035920;28;20276;-68
2022/09/06 09:09:59;;;;;;;;;;;26.00;99.90;;;;;;5027638;28;20004;-68
2022/09/06 09:12:26;;;;;;;;;;;26.20;99.90;;;;;;5035222;28;20433;-68
2022/09/06 09:14:54;;;;;;;;;;;26.40;99.90;;;;;;5035430;28;20285;-67
2022/09/06 09:17:23;;;;;;;;;;;26.60;99.90;;;;;;5018024;28;19916;-68
2022/09/06 09:19:49;;;;;;;;;;;26.60;99.90;;;;;;5035729;28;19905;-66
2022/09/06 09:22:16;;;;;;;;;;;26.90;99.90;;;;;;5035341;28;20297;-65
2022/09/06 09:24:43;;;;;;;;;;;27.00;99.90;;;;;;5035676;28;19913;-65
2022/09/06 09:27:10;;;;;;;;;;;27.00;99.90;;;;;;5017742;28;19905;-63
2022/09/06 09:29:54;;;;;;;;;;;27.10;99.90;;;;;;5035591;28;19913;-66
2022/09/06 09:32:29;;;;;;;;;;;27.20;99.90;;;;;;5035502;28;19951;-69
2022/09/06 09:35:13;;;;;;;;;;;27.40;99.90;;;;;;5035551;28;19909;-68
2022/09/06 09:37:39;;;;;;;;;;;27.50;99.90;;;;;;5035521;28;19905;-68
2022/09/06 09:40:05;;;;;;;;;;;27.60;99.90;;;;;;5017554;28;19912;-65
2022/09/06 09:42:33;;;;;;;;;;;27.70;99.90;;;;;;5035127;28;19909;-66
2022/09/06 09:45:00;;;;;;;;;;;27.90;99.90;;;;;;5035365;28;19959;-68
2022/09/06 09:47:30;;;;;;;;;;;27.80;99.90;;;;;;5017336;28;19905;-68
2022/09/06 09:49:56;;;;;;;;;;;27.80;99.90;;;;;;5017492;28;20243;-68
2022/09/06 09:52:29;;;;;;;;;;;27.80;99.90;;;;;;5017077;28;19916;-69
2022/09/06 09:54:56;;;;;;;;;;;27.90;99.90;;;;;;5035114;28;19905;-68
2022/09/06 09:57:22;;;;;;;;;;;27.90;99.90;;;;;;5017173;28;20011;-69
2022/09/06 09:59:53;;;;;;;;;;;28.20;99.90;;;;;;5034901;28;19967;-68
2022/09/06 10:02:27;;;;;;;;;;;28.40;99.90;;;;;;5034821;28;19905;-69
2022/09/06 10:04:59;;;;;;;;;;;28.50;99.90;;;;;;5034942;28;19944;-68
2022/09/06 10:07:25;;;;;;;;;;;28.80;99.90;;;;;;5034902;28;19905;-69
2022/09/06 10:09:59;;;;;;;;;;;28.90;99.90;;;;;;5016724;28;19920;-68
2022/09/06 10:12:29;;;;;;;;;;;29.00;99.90;;;;;;5034684;28;19909;-68
2022/09/06 10:14:55;;;;;;;;;;;29.10;99.90;;;;;;5034192;28;20003;-68
2022/09/06 10:17:29;;;;;;;;;;;29.40;99.90;;;;;;5034619;28;19997;-68
2022/09/06 10:19:54;;;;;;;;;;;29.50;99.90;;;;;;5034545;28;20001;-69
2022/09/06 10:22:22;;;;;;;;;;;29.70;99.90;;;;;;5034427;28;20003;-70
2022/09/06 10:25:07;;;;;;;;;;;30.10;99.90;;;;;;5034417;28;20389;-69
2022/09/06 10:27:32;;;;;;;;;;;30.50;99.90;;;;;;5016730;28;20349;-68
2022/09/06 10:30:05;;;;;;;;;;;30.80;99.90;;;;;;5034307;28;19920;-68
2022/09/06 10:32:39;;;;;;;;;;;31.30;99.90;;;;;;5033876;28;19909;-69
2022/09/06 10:35:09;;;;;;;;;;;31.70;99.90;;;;;;5016491;28;19924;-67
2022/09/06 10:37:42;;;;;;;;;;;31.70;99.10;;;;;;5034171;28;19913;-69
2022/09/06 10:40:09;;;;;;;;;;;32.40;97.90;;;;;;5016585;28;20272;-69
2022/09/06 10:42:38;;;;;;;;;;;33.30;95.30;;;;;;5034183;28;20003;-69
2022/09/06 10:45:07;;;;;;;;;;;33.50;95.70;;;;;;5034078;28;19959;-69
2022/09/06 10:47:48;;;;;;;;;;;34.30;94.00;;;;;;5033869;28;19912;-69
2022/09/06 10:50:14;;;;;;;;;;;34.70;91.50;;;;;;5034158;28;19951;-69
2022/09/06 10:52:42;;;;;;;;;;;34.50;90.10;;;;;;5033478;28;19905;-70
2022/09/06 10:55:12;;;;;;;;;;;35.00;92.60;;;;;;5033969;28;19921;-71
2022/09/06 10:57:45;;;;;;;;;;;35.00;86.80;;;;;;5015778;28;19955;-66
2022/09/06 11:00:12;;;;;;;;;;;36.10;83.40;;;;;;5033400;28;19927;-69
2022/09/06 11:02:41;;;;;;;;;;;36.80;79.90;;;;;;5033816;28;19913;-69
2022/09/06 11:05:07;;;;;;;;;;;;;;;;;;5015973;28;20388;-71
2022/09/06 11:07:36;;;;;;;;;;;37.60;90.20;;;;;;5033781;28;19912;-70
2022/09/06 11:10:02;;;;;;;;;;;37.00;88.70;;;;;;5033804;28;19909;-69
2022/09/06 11:12:37;;;;;;;;;;;37.20;86.00;;;;;;5015862;28;19912;-69
2022/09/06 11:15:04;;;;;;;;;;;38.00;94.10;;;;;;5033246;28;19925;-69
2022/09/06 11:17:32;;;;;;;;;;;38.30;73.10;;;;;;5033395;28;20012;-69
2022/09/06 11:20:12;;;;;;;;;;;38.30;72.90;;;;;;5033529;28;19909;-68
2022/09/06 11:22:58;;;;;;;;;;;38.90;72.80;;;;;;5033566;28;20004;-70
2022/09/06 11:25:42;;;;;;;;;;;39.10;72.00;;;;;;5025742;28;19909;-69
2022/09/06 11:28:10;;;;;;;;;;;39.80;69.10;;;;;;5033429;28;20009;-70
2022/09/06 11:30:36;;;;;;;;;;;40.10;68.50;;;;;;5033287;28;19912;-70
2022/09/06 11:33:08;;;;;;;;;;;39.50;66.30;;;;;;5033708;28;19909;-70
2022/09/06 11:35:35;;;;;;;;;;;39.80;68.10;;;;;;5033412;28;19909;-70
2022/09/06 11:38:21;;;;;;;;;;;39.60;70.50;;;;;;5015605;28;20003;-70
2022/09/06 11:40:49;;;;;;;;;;;40.50;64.10;;;;;;5032677;28;20397;-69
2022/09/06 11:43:17;;;;;;;;;;;40.40;64.20;;;;;;5015495;28;20407;-70
2022/09/06 11:45:44;;;;;;;;;;;41.00;65.80;;;;;;5033334;28;19909;-69
2022/09/06 11:48:22;;;;;;;;;;;41.10;64.00;;;;;;5033036;28;20357;-70
2022/09/06 11:50:57;;;;;;;;;;;40.90;64.60;;;;;;5015504;28;19935;-70
2022/09/06 11:53:50;;;;;;;9.63;7.13;;;41.40;62.70;;;;;;5032815;28;20221;-70
2022/09/06 11:56:28;;;;;;;8.25;6.75;;;;;;;;;;4996384;28;20106;-70
2022/09/06 11:59:30;;;;;;;7.47;6.72;;;42.10;63.00;;;;;;5032792;28;20049;-69
2022/09/06 12:02:00;;;;;;;;;;;41.50;61.80;;;;;;5014674;28;20042;-69
2022/09/06 12:05:08;;;;;;;;;;;42.00;61.60;;;;;;5033095;28;20013;-70
2022/09/06 12:07:34;;;;;;;;;;;;;;;;;;4991354;28;19910;-70
2022/09/06 12:10:00;;;;;;;;;;;42.30;67.00;;;;;;4991382;28;19988;-69
2022/09/06 12:12:47;;;;;;;;;;;42.40;57.40;;;;;;5014709;28;20231;-71
2022/09/06 12:15:13;;;;;;;;;;;;;;;;;;5029685;28;19917;-69
2022/09/06 12:17:45;;;;;;;;;;;42.80;58.50;;;;;;5036754;28;20346;-70
2022/09/06 12:20:31;;;;;;;;;;;43.10;59.00;;;;;;5036801;28;19912;-69
2022/09/06 12:22:57;;;;;;;;;;;;;;;;;;5036404;28;19913;-71
2022/09/06 12:25:23;;;;;;;;;;;;;;;;;;5018993;28;20369;-69
2022/09/06 12:27:51;;;;;;;;;;;43.20;84.40;;;;;;5036479;28;19998;-69
2022/09/06 12:30:17;;;;;;;;;;;;;;;;;;5034664;28;20285;-71
2022/09/06 12:32:47;;;;;;;;;;;43.40;58.50;;;;;;5051600;28;20004;-70
2022/09/06 12:35:13;;;;;;;;;;;;;;;;;;5018898;28;19913;-70
2022/09/06 12:37:39;;;;;;;;;;;;;;;;;;5036225;28;19905;-72
2022/09/06 12:40:06;;;;;;;;;;;43.80;81.90;;;;;;5036060;28;20476;-72
2022/09/06 12:42:34;;;;;;;;;;;;;;;;;;5036317;28;20368;-71
2022/09/06 12:45:00;;;;;;;;;;;;;;;;;;5051679;28;19908;-69
2022/09/06 12:47:26;;;;;;;;;;;;;;;;;;5036266;28;20365;-72
2022/09/06 12:50:11;;;;;;;;;;;44.90;56.30;;;;;;5036206;28;19905;-70
2022/09/06 12:52:46;;;;;;;;;;;45.10;54.80;;;;;;5036292;28;19912;-72
2022/09/06 12:55:13;;;;;;;;;;;45.00;78.00;;;;;;5018315;28;19955;-70
2022/09/06 12:57:45;;;;;;;;;;;45.30;55.40;;;;;;5036525;28;19931;-69
2022/09/06 13:00:11;;;;;;;;;;;45.20;55.60;;;;;;5018224;28;19905;-68
2022/09/06 13:02:51;;;;;;;;;;;45.30;55.40;;;;;;5035856;28;20373;-69
2022/09/06 13:05:16;;;;;;;;;;;44.40;55.40;;;;;;5018379;28;19909;-69
2022/09/06 13:07:58;;;;;;;6.88;6.18;;;45.00;54.90;;;;;;5036991;28;19909;-70
2022/09/06 13:10:24;;;;;;;;;;;;;;;;;;5037077;28;20025;-70
2022/09/06 13:12:51;;;;;;;;;;;;;;;;;;5051858;28;19909;-69
2022/09/06 13:15:20;;;;;;;;;;;;;;;;;;5037016;28;19913;-69
2022/09/06 13:17:46;;;;;;;;;;;;;;;;;;5037003;28;19916;-69
2022/09/06 13:20:12;;;;;;;;;;;;;;;;;;5052519;28;19905;-70
2022/09/06 13:22:38;;;;;;;;;;;;;;;;;;5035960;28;19955;-70
2022/09/06 13:25:04;;;;;;;;;;;45.40;54.10;;;;;;5036551;28;19909;-70
2022/09/06 13:27:30;;;;;;;;;;;;;;;;;;5035678;28;20063;-69
2022/09/06 13:29:56;;;;;;;;;;;;;;;;;;5035603;28;20403;-70
2022/09/06 13:32:22;;;;;;;6.70;5.90;;;;;;;;;;5035379;28;19952;-68
2022/09/06 13:34:55;;;;;;;7.07;5.80;;;;;;;;;;5035052;28;20477;-70
2022/09/06 13:37:23;;;;;;;5.95;5.45;;;;;;;;;;5050248;28;20490;-70
2022/09/06 13:39:50;;;;;;;6.75;6.15;;;;;;;;;;5034974;28;20516;-69
2022/09/06 13:42:27;;;;;;;6.85;6.25;;;;;;;;;;5050193;28;20112;-69
2022/09/06 13:44:53;;;;;;;6.38;5.72;;;;;;;;;;5034907;28;20536;-70
2022/09/06 13:47:19;;;;;;;8.35;5.63;;;;;;;;;;5034948;28;20065;-70
2022/09/06 13:49:46;;;;;;;7.15;6.07;;;;;;;;;;5050106;28;20484;-70
2022/09/06 13:52:12;;;;;;;7.20;6.60;;;;;;;;;;5034869;28;20049;-70
2022/09/06 13:54:38;;;;;;;9.32;8.52;;;;;;;;;;5049955;28;20087;-70
2022/09/06 13:57:04;;;;;;;;;;;;;;;;;;5035192;28;20538;-68
2022/09/06 13:59:30;;;;;;;;;;;46.40;51.10;;;;;;5034846;28;20395;-69
2022/09/06 14:01:56;;;;;;;;;;;;;;;;;;5035326;28;19905;-69
2022/09/06 14:04:22;;;;;;;;;;;;;;;;;;5034884;28;19913;-69
2022/09/06 14:06:48;;;;;;;;;;;;;;;;;;5034953;28;19919;-69
2022/09/06 14:09:14;;;;;;;;;;;;;;;;;;5034832;28;20004;-69
2022/09/06 14:11:41;;;;;;;;;;;;;;;;;;5050168;28;20031;-69
2022/09/06 14:14:08;;;;;;;;;;;;;;;;;;5034668;28;19917;-69
2022/09/06 14:16:34;;;;;;;;;;;;;;;;;;5050120;28;19916;-68
2022/09/06 14:19:00;;;;;;;;;;;;;;;;;;5050013;28;19905;-67
2022/09/06 14:21:26;;;;;;;;;;;;;;;;;;5034689;28;19912;-66
2022/09/06 14:23:52;;;;;;;;;;;;;;;;;;5034563;28;20341;-68
2022/09/06 14:26:19;;;;;;;;;;;;;;;;;;5034627;28;20003;-67
2022/09/06 14:28:45;;;;;;;;;;;;;;;;;;5049815;28;20012;-69
2022/09/06 14:31:11;;;;;;;;;;;;;;;;;;5049740;28;19919;-67
2022/09/06 14:33:37;;;;;;;;;;;;;;;;;;5033749;28;19905;-67
2022/09/06 14:36:03;;;;;;;;;;;;;;;;;;5034387;28;19905;-67
2022/09/06 14:38:29;;;;;;;;;;;42.20;53.60;;;;;;5034586;28;19905;-69